LFRB 121530Z AUTO 30011KT 270V330 9999 BKN012 OVC018 10/08 Q1030 TEMPO 4000 DZ BECMG OVC005

ElémentsDécodage
LFRB Station météo située sur l'aérodrome de BREST Guipavas
121530Z émis le 12 du mois à 15h30 UTC
AUTO Bulletin édité par un automate
30011KT vent du 300°, 11 noeuds
270V330 vent de direction variable entre 270° et 330°
9999 visibilité horizontale supérieure à 10 Km
BKN012 nuages morcelés (5/8 à 7/8) à 1200 pieds
OVC018 couverture nuageuse totale (8/8) à 1800 pieds
10/08 température 10°C, point de rosée 08°C
 soit une humidité relative de 87%
Q1030 la pression au niveau de la mer (QNH) est de 1030 hPa
TEMPO fluctuation temporaire prévue
4000 visibilité horizontale de 4000 mètres
DZ bruine
BECMG fluctuation du temps prévue
OVC005 couverture nuageuse totale (8/8) à 500 pieds